Hammond Municipal, LA

9:01 AM CDT on October 22, 2014 (GMT -0500)
New Orleans International | Change Station
CLOSE
Current Station
Airport
Location: New Orleans,
Elevation: 1 m
Nearby Weather Stations

Elev 1 m 29.99 °N, 90.25 °W | Updated 8 minutes ago

Clear
Clear
22 °C
Feels Like 22 °C
N
22
Wind Variable Wind from NE

Today
High -- | Low -- °C
--% Chance of Precip.
Yesterday
High -- | Low -- °C
Precip. -- mm
7:08 AM 6:22 PM
Waning Crescent, 2% visible
Pressure 1019 hPa
Visibility 16.1 kilometers
Clouds Few 7620 m
Dew Point 13 °C
Humidity 59%
Rainfall 0.0 mm
Snow Depth Not available.
UV 2 out of 12
Pollen 3.60 out of 12
Air Quality Not available.
Flu Activity Sporadic
METAR KMSY 221353Z 05012KT 10SM FEW250 22/13 A3008 RMK AO2 SLP190 T02170133

More Conditions Fewer Conditions

Pressure 1019 hPa
Visibility 16.1 kilometers
Clouds Few 7620 m
Dew Point 13 °C
Humidity 59%
Rainfall 0.0 mm
Snow Depth Not available.
UV 2 out of 12
Pollen 3.60 out of 12
Air Quality Not available.
Flu Activity Sporadic
METAR KMSY 221353Z 05012KT 10SM FEW250 22/13 A3008 RMK AO2 SLP190 T02170133

More Conditions Fewer Conditions

10-Day Weather Forecast

Almanac

Astronomy

Oct. 22, 2014 Rise Set
Actual Time 7:08 AM CDT 6:22 PM CDT
Civil Twilight 6:44 AM CDT 6:47 PM CDT
Nautical Twilight 6:16 AM CDT 7:15 PM CDT
Astronomical Twilight 5:48 AM CDT 7:43 PM CDT
Moon 5:55 AM CDT 5:46 PM CDT
Length of Visible Light 12h 03m
Length of Day
11h 14m
Tomorrow will be 1m 43s shorter.
Waning Crescent, 2% of the Moon is Illuminated
Today
Waning Crescent
Oct 23
New
Oct 30
First Quarter
Nov 6
Full
Nov 14
Last Quarter

Today's Extremes

State Highs State Lows

Community

WunderPhotos

Upload Photos

1,763,923 photos uploaded!

WunderBlogs® & News

Nearby

Snow Depth

Station Depth Elevation
No new snow has been reported.

Earthquake Activity

City Distance Mag. Time & Date
No recent earthquake activity has been reported nearby.
Minimum magnitude displayed is 2.5.

Coastal Water Temperatures

Place Temperature
New Canal, LA 21.7 °C
Shell Beach, LA 20.0 °C
Bayou Gauche, LA 22.8 °C

Nearby Weather Stations